createdAt,value
2018-07-29T00:02:14.299Z,74.8
2018-07-29T00:07:26.467Z,75.7
2018-07-29T00:12:26.423Z,75.3
2018-07-29T00:17:27.145Z,76.1
2018-07-29T00:22:26.395Z,76.6
2018-07-29T00:27:26.198Z,75.2
2018-07-29T00:32:26.191Z,75.8
2018-07-29T00:37:26.404Z,76.2
2018-07-29T00:42:26.654Z,75.6
2018-07-29T00:47:26.390Z,75.5
2018-07-29T00:52:39.295Z,74.8
2018-07-29T00:57:39.248Z,75.2
2018-07-29T01:02:39.261Z,74.7
2018-07-29T01:07:39.021Z,75.4
2018-07-29T01:12:39.240Z,75
2018-07-29T01:17:39.169Z,74.5
2018-07-29T01:22:39.245Z,75.4
2018-07-29T01:27:39.444Z,74.6
2018-07-29T01:32:39.339Z,75.6
2018-07-29T01:37:52.580Z,75.8
2018-07-29T01:42:52.536Z,75
2018-07-29T01:47:52.384Z,75.9
2018-07-29T01:52:52.327Z,76.5
2018-07-29T01:57:52.544Z,75.5
2018-07-29T02:02:52.462Z,76.2
2018-07-29T02:07:53.213Z,76.9
2018-07-29T02:12:53.147Z,74.8
2018-07-29T02:17:52.877Z,77.1
2018-07-29T02:23:05.480Z,74.9
2018-07-29T02:28:05.209Z,74.9
2018-07-29T02:33:05.368Z,75.6
2018-07-29T02:38:05.408Z,75.9
2018-07-29T02:43:05.444Z,75.8
2018-07-29T02:48:05.234Z,75.9
2018-07-29T02:53:05.381Z,76.8
2018-07-29T02:58:08.017Z,75.7
2018-07-29T03:03:07.744Z,76
2018-07-29T03:08:20.194Z,76
2018-07-29T03:13:19.897Z,76.2
2018-07-29T03:18:20.122Z,74.9
2018-07-29T03:23:20.051Z,74.9
2018-07-29T03:28:20.089Z,76.4
2018-07-29T03:33:19.912Z,77.2
2018-07-29T03:38:20.045Z,76.7
2018-07-29T03:43:24.016Z,76.9
2018-07-29T03:48:23.670Z,77
2018-07-29T03:53:36.255Z,76.6
2018-07-29T03:58:36.173Z,76.6
2018-07-29T04:03:36.201Z,75.8
2018-07-29T04:08:35.987Z,76.1
2018-07-29T04:13:35.990Z,76.2
2018-07-29T04:18:35.996Z,74.9
2018-07-29T04:23:35.998Z,74.8
2018-07-29T04:28:40.160Z,75.2
2018-07-29T04:33:39.902Z,74.8
2018-07-29T04:38:52.629Z,73.9
2018-07-29T04:43:52.552Z,73.2
2018-07-29T04:48:52.471Z,74.1
2018-07-29T04:53:52.511Z,74.6
2018-07-29T04:58:52.533Z,74.4
2018-07-29T05:03:52.480Z,73.8
2018-07-29T05:08:52.514Z,75.7
2018-07-29T05:13:57.895Z,76.9
2018-07-29T05:18:58.014Z,75.1
2018-07-29T05:24:08.304Z,74.3
2018-07-29T05:29:08.224Z,74.3
2018-07-29T05:34:08.103Z,74.4
2018-07-29T05:39:08.024Z,73.9
2018-07-29T05:44:08.060Z,74.6
2018-07-29T05:49:08.266Z,74
2018-07-29T05:54:08.009Z,73
2018-07-29T05:59:08.535Z,74
2018-07-29T06:04:08.687Z,74.3
2018-07-29T06:09:23.394Z,74.6
2018-07-29T06:14:23.161Z,75
2018-07-29T06:19:23.139Z,74.7
2018-07-29T06:24:23.153Z,74.3
2018-07-29T06:29:23.149Z,73.3
2018-07-29T06:34:23.303Z,74.3
2018-07-29T06:39:23.162Z,74.2
2018-07-29T06:44:23.600Z,72.8
2018-07-29T06:49:23.512Z,72.3
2018-07-29T06:54:35.582Z,72
2018-07-29T06:59:35.300Z,72.3
2018-07-29T07:04:35.326Z,72.1
2018-07-29T07:09:35.337Z,70.2
2018-07-29T07:14:35.321Z,70
2018-07-29T07:19:35.336Z,66.3
2018-07-29T07:24:35.367Z,63.4
2018-07-29T07:29:38.174Z,62.9
2018-07-29T07:34:38.063Z,60.9
2018-07-29T07:39:50.074Z,61
2018-07-29T07:44:50.027Z,59.2
2018-07-29T07:49:49.812Z,60.1
2018-07-29T07:54:49.819Z,60.5
2018-07-29T07:59:49.788Z,59.7
2018-07-29T08:04:49.805Z,59.7
2018-07-29T08:09:49.849Z,58.7
2018-07-29T08:14:49.825Z,59.3
2018-07-29T08:19:49.835Z,58.2
2018-07-29T08:25:03.468Z,57.8
2018-07-29T08:30:03.060Z,58
2018-07-29T08:35:03.076Z,56.3
2018-07-29T08:40:03.057Z,54.8
2018-07-29T08:45:03.325Z,55.5
2018-07-29T08:50:03.089Z,54.7
2018-07-29T08:55:03.109Z,54.1
2018-07-29T09:00:04.482Z,53.8
2018-07-29T09:05:04.251Z,53
2018-07-29T09:10:16.496Z,53
2018-07-29T09:15:16.203Z,54.4
2018-07-29T09:20:16.192Z,53.6
2018-07-29T09:25:16.595Z,51.9
2018-07-29T09:30:16.454Z,53
2018-07-29T09:35:16.257Z,52.8
2018-07-29T09:40:16.447Z,52
2018-07-29T09:45:18.535Z,51.3
2018-07-29T09:50:18.175Z,51.8
2018-07-29T09:55:28.288Z,50.7
2018-07-29T10:00:28.005Z,52.4
2018-07-29T10:05:28.009Z,50.7
2018-07-29T10:10:30.769Z,49.6
2018-07-29T10:15:28.079Z,50.9
2018-07-29T10:20:28.032Z,49.6
2018-07-29T10:25:28.049Z,47.9
2018-07-29T10:30:28.128Z,48
2018-07-29T10:35:28.224Z,46.5
2018-07-29T10:40:40.157Z,46.1
2018-07-29T10:45:40.100Z,45.1
2018-07-29T10:50:39.889Z,45.9
2018-07-29T10:55:40.043Z,43.9
2018-07-29T11:00:40.106Z,45
2018-07-29T11:05:39.906Z,45.3
2018-07-29T11:10:39.841Z,46.5
2018-07-29T11:15:43.175Z,43.2
2018-07-29T11:20:42.989Z,44
2018-07-29T11:25:55.090Z,43.3
2018-07-29T11:30:54.816Z,44.8
2018-07-29T11:35:55.169Z,46
2018-07-29T11:40:54.841Z,46
2018-07-29T11:45:54.795Z,45.8
2018-07-29T11:50:54.829Z,44.9
2018-07-29T11:55:54.847Z,46.9
2018-07-29T12:00:55.268Z,45.3
2018-07-29T12:05:55.006Z,47.2
2018-07-29T12:11:07.406Z,47.2
2018-07-29T12:16:07.118Z,46.7
2018-07-29T12:21:07.272Z,46.3
2018-07-29T12:26:07.142Z,46.7
2018-07-29T12:31:07.134Z,47.1
2018-07-29T12:36:07.134Z,45.9
2018-07-29T12:41:07.134Z,46.1
2018-07-29T12:46:08.908Z,46.4
2018-07-29T12:51:08.605Z,46.7
2018-07-29T12:56:21.051Z,46.1
2018-07-29T13:01:20.760Z,44.6
2018-07-29T13:06:20.753Z,45.2
2018-07-29T13:11:20.781Z,46.3
2018-07-29T13:16:20.751Z,45.2
2018-07-29T13:21:20.784Z,45.5
2018-07-29T13:26:20.761Z,46.1
2018-07-29T13:31:22.050Z,44.8
2018-07-29T13:36:21.681Z,43.7
2018-07-29T13:41:33.662Z,43.6
2018-07-29T13:46:33.419Z,43.4
2018-07-29T13:51:33.427Z,42.8
2018-07-29T13:56:33.406Z,43
2018-07-29T14:01:33.412Z,40.8
2018-07-29T14:06:33.440Z,42.4
2018-07-29T14:11:33.443Z,42.5
2018-07-29T14:16:33.851Z,42.2
2018-07-29T14:21:33.600Z,42.6
2018-07-29T14:26:46.315Z,43
2018-07-29T14:31:45.964Z,41.7
2018-07-29T14:36:46.037Z,42.5
2018-07-29T14:41:46.117Z,42.2
2018-07-29T14:46:45.937Z,41.5
2018-07-29T14:51:45.955Z,41.9
2018-07-29T14:56:45.961Z,42.5
2018-07-29T15:01:45.972Z,41.6
2018-07-29T15:06:46.077Z,42.2
2018-07-29T15:11:57.831Z,41.6
2018-07-29T15:16:57.649Z,42.3
2018-07-29T15:21:57.559Z,41.3
2018-07-29T15:26:57.854Z,40.7
2018-07-29T15:31:57.557Z,42.6
2018-07-29T15:36:57.565Z,42.7
2018-07-29T15:41:57.564Z,43
2018-07-29T15:47:01.846Z,42.1
2018-07-29T15:52:01.563Z,42.6
2018-07-29T15:57:14.404Z,42.2
2018-07-29T16:02:14.130Z,42.7
2018-07-29T16:07:14.121Z,42.7
2018-07-29T16:12:14.140Z,42.3
2018-07-29T16:17:14.320Z,42.3
2018-07-29T16:22:14.110Z,44.2
2018-07-29T16:27:14.127Z,43
2018-07-29T16:32:14.439Z,43.7
2018-07-29T16:37:14.374Z,42.9
2018-07-29T16:42:27.421Z,42.4
2018-07-29T16:47:27.111Z,44.8
2018-07-29T16:52:26.936Z,41.6
2018-07-29T16:57:27.073Z,43.4
2018-07-29T17:02:27.104Z,43.2
2018-07-29T17:07:27.149Z,41.7
2018-07-29T17:12:26.946Z,42
2018-07-29T17:17:27.273Z,42.8
2018-07-29T17:22:27.011Z,42.5
2018-07-29T17:27:40.055Z,42.5
2018-07-29T17:32:39.811Z,43
2018-07-29T17:37:39.610Z,43.4
2018-07-29T17:42:39.960Z,43.7
2018-07-29T17:47:39.633Z,45.1
2018-07-29T17:52:39.740Z,46.6
2018-07-29T17:57:39.631Z,46.6
2018-07-29T18:02:39.946Z,46.5
2018-07-29T18:07:39.858Z,46.8
2018-07-29T18:12:52.375Z,47.5
2018-07-29T18:17:52.329Z,48.2
2018-07-29T18:22:52.463Z,48.5
2018-07-29T18:27:52.454Z,49.5
2018-07-29T18:32:52.327Z,50.3
2018-07-29T18:37:52.241Z,50.2
2018-07-29T18:42:52.294Z,50.7
2018-07-29T18:47:53.409Z,53.1
2018-07-29T18:52:52.972Z,54.6
2018-07-29T18:58:05.554Z,55.1
2018-07-29T19:03:05.390Z,54.3
2018-07-29T19:08:05.255Z,54.1
2018-07-29T19:13:05.521Z,54.7
2018-07-29T19:18:05.415Z,59.2
2018-07-29T19:23:05.472Z,58.7
2018-07-29T19:28:05.907Z,58.3
2018-07-29T19:33:08.675Z,57.4
2018-07-29T19:38:08.517Z,58
2018-07-29T19:43:20.861Z,58.1
2018-07-29T19:48:20.796Z,59.9
2018-07-29T19:53:20.587Z,61.5
2018-07-29T19:58:20.712Z,61.8
2018-07-29T20:03:20.581Z,62.8
2018-07-29T20:08:20.842Z,62.7
2018-07-29T20:13:20.744Z,62.2
2018-07-29T20:18:22.442Z,62.6
2018-07-29T20:23:22.161Z,64.5
2018-07-29T20:28:36.003Z,65.3
2018-07-29T20:33:35.735Z,65
2018-07-29T20:38:36.303Z,65
2018-07-29T20:43:35.928Z,64.8
2018-07-29T20:48:35.931Z,64.8
2018-07-29T20:53:35.760Z,65.2
2018-07-29T20:58:35.906Z,65.7
2018-07-29T21:03:38.456Z,65.6
2018-07-29T21:08:38.332Z,67.7
2018-07-29T21:13:53.601Z,66.9
2018-07-29T21:18:53.454Z,66.9
2018-07-29T21:23:53.298Z,69.8
2018-07-29T21:28:53.325Z,69.2
2018-07-29T21:33:53.360Z,69.9
2018-07-29T21:38:53.340Z,70.3
2018-07-29T21:43:53.271Z,70.3
2018-07-29T21:48:53.336Z,70.7
2018-07-29T21:53:53.491Z,70.6
2018-07-29T21:59:04.787Z,71.4
2018-07-29T22:04:04.718Z,72
2018-07-29T22:09:04.501Z,71.5
2018-07-29T22:14:04.706Z,72.5
2018-07-29T22:19:04.509Z,71.9
2018-07-29T22:24:04.660Z,73
2018-07-29T22:29:04.511Z,72.4
2018-07-29T22:34:05.210Z,74.1
2018-07-29T22:39:05.035Z,72.8
2018-07-29T22:44:17.571Z,75.6
2018-07-29T22:49:17.404Z,74.2
2018-07-29T22:54:17.295Z,75.2
2018-07-29T22:59:17.298Z,76.2
2018-07-29T23:04:17.300Z,75.6
2018-07-29T23:09:17.293Z,75.5
2018-07-29T23:14:17.678Z,75.5
2018-07-29T23:19:17.521Z,76.5
2018-07-29T23:24:17.446Z,77.3
2018-07-29T23:29:32.537Z,78
2018-07-29T23:34:32.652Z,77.2
2018-07-29T23:39:32.400Z,77.5
2018-07-29T23:44:32.416Z,77.2
2018-07-29T23:49:32.472Z,77.7
2018-07-29T23:54:32.393Z,77.2
2018-07-29T23:59:32.439Z,76.5
